createdAt,value
2017-08-10T00:04:56.461Z,15.20
2017-08-10T00:07:25.919Z,15.20
2017-08-10T00:12:48.201Z,15.20
2017-08-10T00:15:15.803Z,15.20
2017-08-10T00:17:45.718Z,15.10
2017-08-10T00:20:13.255Z,15.00
2017-08-10T00:22:44.773Z,15.00
2017-08-10T00:25:13.796Z,15.10
2017-08-10T00:27:44.204Z,15.10
2017-08-10T00:30:17.225Z,15.20
2017-08-10T00:32:46.917Z,15.10
2017-08-10T00:35:19.758Z,15.20
2017-08-10T00:37:50.708Z,15.20
2017-08-10T00:40:20.007Z,15.20
2017-08-10T00:42:49.733Z,15.20
2017-08-10T00:48:24.551Z,15.20
2017-08-10T00:51:05.979Z,15.00
2017-08-10T01:01:43.008Z,15.10
2017-08-10T01:04:33.569Z,14.90
2017-08-10T01:09:46.206Z,14.80
2017-08-10T01:12:26.596Z,14.90
2017-08-10T01:15:04.010Z,15.10
2017-08-10T01:23:02.198Z,15.10
2017-08-10T01:25:31.418Z,15.00
2017-08-10T01:27:59.622Z,14.90
2017-08-10T01:30:38.274Z,14.90
2017-08-10T01:33:20.371Z,14.80
2017-08-10T01:38:30.568Z,14.70
2017-08-10T01:41:00.600Z,14.70
2017-08-10T01:43:35.341Z,14.80
2017-08-10T01:46:06.683Z,14.90
2017-08-10T01:48:55.911Z,14.90
2017-08-10T01:51:29.090Z,14.80
2017-08-10T01:54:01.620Z,14.70
2017-08-10T01:56:31.598Z,14.60
2017-08-10T01:59:05.563Z,14.50
2017-08-10T02:01:40.068Z,14.40
2017-08-10T02:04:12.686Z,14.30
2017-08-10T02:06:47.283Z,14.40
2017-08-10T02:09:31.491Z,14.40
2017-08-10T02:12:07.028Z,14.40
2017-08-10T02:14:39.733Z,14.50
2017-08-10T02:17:17.927Z,14.40
2017-08-10T02:20:15.359Z,14.40
2017-08-10T02:22:50.913Z,14.40
2017-08-10T02:25:30.647Z,14.50
2017-08-10T02:28:10.044Z,14.50
2017-08-10T02:33:25.492Z,14.50
2017-08-10T02:41:21.125Z,14.70
2017-08-10T02:44:10.747Z,14.60
2017-08-10T02:46:44.539Z,14.70
2017-08-10T02:49:14.851Z,14.50
2017-08-10T02:51:47.341Z,14.50
2017-08-10T02:54:18.559Z,14.50
2017-08-10T02:56:49.754Z,14.50
2017-08-10T02:59:24.123Z,14.50
2017-08-10T03:02:02.950Z,14.50
2017-08-10T03:04:38.859Z,14.50
2017-08-10T03:07:15.070Z,14.50
2017-08-10T03:12:40.952Z,14.80
2017-08-10T03:15:13.911Z,14.70
2017-08-10T03:17:44.817Z,14.50
2017-08-10T03:20:14.659Z,14.50
2017-08-10T03:22:53.290Z,14.40
2017-08-10T03:25:45.406Z,14.40
2017-08-10T03:28:23.720Z,14.40
2017-08-10T03:31:05.623Z,14.50
2017-08-10T03:33:45.693Z,14.50
2017-08-10T03:36:19.660Z,14.50
2017-08-10T03:39:05.804Z,14.50
2017-08-10T03:44:26.156Z,14.50
2017-08-10T03:47:08.923Z,14.60
2017-08-10T03:49:41.343Z,14.60
2017-08-10T03:52:18.167Z,14.60
2017-08-10T03:57:54.045Z,14.50
2017-08-10T04:00:25.810Z,14.50
2017-08-10T04:03:01.754Z,14.50
2017-08-10T04:05:35.584Z,14.50
2017-08-10T04:11:12.589Z,14.50
2017-08-10T04:13:58.914Z,14.50
2017-08-10T04:16:28.475Z,14.50
2017-08-10T04:19:08.077Z,14.50
2017-08-10T04:21:44.657Z,14.50
2017-08-10T04:24:25.456Z,14.80
2017-08-10T04:27:02.146Z,14.80
2017-08-10T04:29:48.267Z,14.70
2017-08-10T04:32:23.945Z,14.70
2017-08-10T04:35:07.395Z,14.60
2017-08-10T04:40:27.060Z,14.70
2017-08-10T04:43:07.760Z,14.70
2017-08-10T04:45:40.251Z,14.70
2017-08-10T04:48:25.791Z,14.60
2017-08-10T04:51:08.712Z,14.60
2017-08-10T04:56:34.862Z,14.60
2017-08-10T04:59:19.953Z,14.60
2017-08-10T05:08:02.780Z,14.70
2017-08-10T05:13:56.415Z,14.60
2017-08-10T05:19:43.847Z,14.80
2017-08-10T05:25:21.724Z,14.80
2017-08-10T05:27:59.565Z,14.80
2017-08-10T05:30:37.935Z,14.80
2017-08-10T05:33:23.302Z,14.80
2017-08-10T05:38:47.959Z,14.70
2017-08-10T05:41:28.351Z,14.80
2017-08-10T05:49:40.400Z,14.80
2017-08-10T05:52:40.268Z,14.80
2017-08-10T05:57:54.687Z,14.60
2017-08-10T06:00:35.830Z,14.60
2017-08-10T06:03:17.215Z,14.60
2017-08-10T06:08:58.399Z,14.70
2017-08-10T06:11:31.810Z,14.60
2017-08-10T06:14:05.298Z,14.70
2017-08-10T06:16:36.982Z,14.60
2017-08-10T06:19:09.098Z,14.80
2017-08-10T06:24:23.470Z,14.60
2017-08-10T06:29:41.148Z,14.70
2017-08-10T06:37:43.754Z,14.70
2017-08-10T06:40:28.483Z,14.60
2017-08-10T06:43:03.245Z,14.60
2017-08-10T06:45:40.343Z,14.60
2017-08-10T06:48:11.762Z,14.60
2017-08-10T06:50:46.691Z,14.60
2017-08-10T06:53:36.134Z,14.50
2017-08-10T06:56:19.474Z,14.60
2017-08-10T06:58:54.803Z,14.50
2017-08-10T07:01:24.170Z,14.60
2017-08-10T07:09:21.324Z,14.70
2017-08-10T07:11:54.750Z,14.70
2017-08-10T07:14:37.091Z,14.90
2017-08-10T07:17:09.138Z,14.80
2017-08-10T07:19:47.100Z,14.70
2017-08-10T07:22:22.142Z,14.70
2017-08-10T07:25:06.501Z,14.60
2017-08-10T07:27:50.976Z,14.70
2017-08-10T07:30:32.113Z,14.70
2017-08-10T07:33:05.456Z,14.80
2017-08-10T07:35:40.747Z,14.70
2017-08-10T07:38:21.046Z,14.80
2017-08-10T07:46:22.445Z,14.80
2017-08-10T07:51:40.920Z,14.90
2017-08-10T07:57:00.826Z,15.10
2017-08-10T08:02:16.017Z,15.00
2017-08-10T08:04:52.140Z,15.20
2017-08-10T08:07:28.694Z,15.30
2017-08-10T08:12:54.250Z,15.20
2017-08-10T08:15:24.478Z,15.20
2017-08-10T08:17:55.423Z,15.20
2017-08-10T08:20:33.790Z,15.30
2017-08-10T08:23:08.259Z,15.10
2017-08-10T08:25:50.616Z,15.10
2017-08-10T08:28:26.033Z,15.10
2017-08-10T08:31:05.303Z,15.20
2017-08-10T08:33:39.004Z,15.20
2017-08-10T08:36:12.808Z,15.20
2017-08-10T08:38:45.183Z,15.30
2017-08-10T08:41:17.427Z,15.30
2017-08-10T08:46:30.427Z,15.40
2017-08-10T08:49:01.717Z,15.20
2017-08-10T08:51:34.972Z,15.40
2017-08-10T08:54:08.639Z,15.40
2017-08-10T08:56:43.955Z,15.30
2017-08-10T08:59:19.726Z,15.30
2017-08-10T09:01:50.341Z,15.20
2017-08-10T09:04:28.658Z,15.20
2017-08-10T09:06:58.382Z,15.20
2017-08-10T09:09:29.643Z,15.10
2017-08-10T09:12:03.323Z,15.20
2017-08-10T09:14:43.475Z,15.20
2017-08-10T09:17:15.187Z,15.30
2017-08-10T09:19:46.588Z,15.50
2017-08-10T09:22:15.668Z,15.50
2017-08-10T09:24:50.697Z,15.30
2017-08-10T09:27:23.338Z,15.40
2017-08-10T09:29:53.256Z,15.40
2017-08-10T09:32:28.678Z,15.40
2017-08-10T09:37:44.848Z,15.40
2017-08-10T09:40:13.271Z,15.40
2017-08-10T09:42:41.578Z,15.60
2017-08-10T09:45:12.201Z,15.60
2017-08-10T09:47:43.570Z,15.80
2017-08-10T09:50:19.243Z,15.90
2017-08-10T09:52:52.079Z,15.70
2017-08-10T09:55:33.363Z,15.80
2017-08-10T09:58:07.132Z,15.90
2017-08-10T10:00:43.984Z,16.00
2017-08-10T10:03:25.326Z,16.10
2017-08-10T10:05:56.339Z,16.20
2017-08-10T10:08:23.913Z,16.30
2017-08-10T10:10:56.517Z,16.40
2017-08-10T10:13:32.676Z,16.50
2017-08-10T10:16:04.672Z,16.30
2017-08-10T10:18:50.290Z,16.20
2017-08-10T10:24:04.209Z,16.10
2017-08-10T10:26:36.047Z,16.10
2017-08-10T10:29:09.624Z,16.00
2017-08-10T10:31:40.671Z,16.00
2017-08-10T10:34:15.793Z,16.10
2017-08-10T10:39:43.271Z,16.00
2017-08-10T10:42:14.948Z,16.10
2017-08-10T10:47:25.323Z,16.10
2017-08-10T10:49:53.146Z,16.20
2017-08-10T10:52:20.734Z,16.40
2017-08-10T10:54:48.318Z,16.50
2017-08-10T10:57:16.637Z,16.30
2017-08-10T10:59:44.225Z,16.30
2017-08-10T11:02:11.778Z,16.40
2017-08-10T11:04:39.354Z,16.30
2017-08-10T11:07:06.889Z,16.30
2017-08-10T11:09:34.463Z,16.20
2017-08-10T11:12:02.029Z,16.20
2017-08-10T11:14:29.628Z,16.20
2017-08-10T11:16:57.198Z,16.30
2017-08-10T11:19:24.801Z,16.40
2017-08-10T11:21:52.395Z,16.40
2017-08-10T11:24:20.711Z,16.50
2017-08-10T11:26:48.291Z,16.50
2017-08-10T11:29:15.844Z,16.60
2017-08-10T11:31:43.418Z,16.60
2017-08-10T11:34:10.994Z,16.40
2017-08-10T11:36:39.349Z,16.40
2017-08-10T11:39:07.726Z,16.40
2017-08-10T11:41:35.270Z,16.50
2017-08-10T11:44:03.536Z,16.50
2017-08-10T11:46:31.607Z,16.50
2017-08-10T11:48:59.204Z,16.40
2017-08-10T11:51:26.755Z,16.60
2017-08-10T11:53:54.294Z,16.50
2017-08-10T11:56:22.696Z,16.70
2017-08-10T11:58:50.238Z,16.80
2017-08-10T12:01:17.806Z,17.00
2017-08-10T12:03:45.351Z,17.00
2017-08-10T12:06:12.942Z,16.90
2017-08-10T12:08:42.114Z,16.80
2017-08-10T12:11:09.657Z,16.80
2017-08-10T12:13:37.234Z,16.70
2017-08-10T12:16:04.783Z,16.60
2017-08-10T12:18:32.370Z,16.70
2017-08-10T12:20:59.916Z,16.90
2017-08-10T12:23:27.514Z,16.90
2017-08-10T12:25:55.826Z,16.80
2017-08-10T12:28:23.370Z,16.80
2017-08-10T12:30:50.954Z,16.80
2017-08-10T12:33:18.522Z,16.80
2017-08-10T12:35:46.098Z,16.80
2017-08-10T12:38:13.652Z,16.50
2017-08-10T12:40:41.194Z,16.50
2017-08-10T12:43:08.775Z,16.50
2017-08-10T12:45:36.370Z,16.40
2017-08-10T12:48:03.909Z,16.50
2017-08-10T12:50:32.222Z,16.60
2017-08-10T12:52:59.807Z,16.60
2017-08-10T12:55:27.353Z,16.80
2017-08-10T12:57:54.926Z,16.80
2017-08-10T13:00:22.467Z,16.90
2017-08-10T13:02:50.047Z,16.90
2017-08-10T13:05:17.592Z,16.90
2017-08-10T13:07:45.172Z,16.80
2017-08-10T13:10:12.757Z,16.80
2017-08-10T13:12:41.121Z,16.60
2017-08-10T13:15:09.471Z,16.40
2017-08-10T13:17:37.054Z,16.40
2017-08-10T13:20:04.618Z,16.40
2017-08-10T13:22:32.200Z,16.30
2017-08-10T13:24:59.742Z,16.40
2017-08-10T13:27:28.086Z,16.40
2017-08-10T13:29:55.646Z,16.40
2017-08-10T13:32:23.277Z,16.50
2017-08-10T13:34:50.822Z,16.50
2017-08-10T13:37:18.358Z,16.40
2017-08-10T13:39:47.609Z,16.40
2017-08-10T13:42:15.154Z,16.40
2017-08-10T13:44:42.734Z,16.40
2017-08-10T13:47:10.282Z,16.50
2017-08-10T13:49:37.882Z,16.60
2017-08-10T13:52:05.421Z,16.70
2017-08-10T13:54:33.003Z,16.70
2017-08-10T13:57:01.311Z,16.70
2017-08-10T13:59:28.877Z,16.70
2017-08-10T14:01:56.419Z,16.50
2017-08-10T14:04:23.998Z,16.40
2017-08-10T14:06:51.795Z,16.50
2017-08-10T14:09:20.113Z,16.50
2017-08-10T14:11:47.669Z,16.40
2017-08-10T14:14:15.981Z,16.70
2017-08-10T14:16:43.839Z,16.60
2017-08-10T14:19:11.420Z,16.80
2017-08-10T14:21:38.962Z,16.80
2017-08-10T14:24:06.500Z,16.80
2017-08-10T14:26:34.073Z,16.70
2017-08-10T14:29:01.622Z,16.70
2017-08-10T14:31:29.204Z,16.70
2017-08-10T14:33:57.576Z,16.60
2017-08-10T14:36:25.175Z,16.60
2017-08-10T14:38:53.502Z,16.70
2017-08-10T14:41:21.048Z,16.70
2017-08-10T14:43:48.631Z,16.80
2017-08-10T14:46:16.192Z,16.70
2017-08-10T14:48:43.762Z,16.70
2017-08-10T14:51:11.342Z,16.70
2017-08-10T14:53:38.934Z,16.80
2017-08-10T14:56:06.473Z,16.90
2017-08-10T14:58:34.816Z,16.90
2017-08-10T15:01:04.490Z,16.80
2017-08-10T15:03:32.089Z,16.90
2017-08-10T15:05:59.685Z,16.80
2017-08-10T15:08:27.290Z,16.80
2017-08-10T15:10:54.892Z,16.70
2017-08-10T15:13:22.505Z,16.60
2017-08-10T15:15:50.051Z,16.70
2017-08-10T15:18:17.630Z,16.60
2017-08-10T15:20:45.175Z,16.60
2017-08-10T15:23:12.746Z,16.60
2017-08-10T15:25:40.330Z,16.60
2017-08-10T15:28:07.886Z,16.60
2017-08-10T15:30:35.459Z,16.60
2017-08-10T15:33:05.310Z,16.60
2017-08-10T15:35:33.285Z,16.60
2017-08-10T15:38:00.862Z,16.60
2017-08-10T15:40:28.441Z,16.70
2017-08-10T15:42:56.359Z,16.60
2017-08-10T15:45:24.092Z,16.50
2017-08-10T15:47:52.448Z,16.40
2017-08-10T15:50:19.985Z,16.40
2017-08-10T15:52:47.561Z,16.30
2017-08-10T15:55:15.115Z,16.30
2017-08-10T15:57:43.170Z,16.30
2017-08-10T16:00:10.759Z,16.30
2017-08-10T16:02:39.110Z,16.30
2017-08-10T16:05:06.687Z,16.40
2017-08-10T16:07:36.290Z,16.40
2017-08-10T16:10:06.762Z,16.40
2017-08-10T16:12:36.295Z,16.40
2017-08-10T16:15:03.867Z,16.30
2017-08-10T16:17:31.410Z,16.30
2017-08-10T16:19:58.994Z,16.20
2017-08-10T16:22:26.633Z,16.30
2017-08-10T16:24:54.304Z,16.30
2017-08-10T16:27:22.725Z,16.30
2017-08-10T16:29:51.683Z,16.30
2017-08-10T16:32:20.063Z,16.30
2017-08-10T16:34:47.641Z,16.30
2017-08-10T16:37:15.217Z,16.30
2017-08-10T16:39:43.581Z,16.20
2017-08-10T16:42:12.458Z,16.20
2017-08-10T16:44:40.505Z,16.20
2017-08-10T16:47:09.751Z,16.20
2017-08-10T16:49:38.100Z,16.30
2017-08-10T16:52:05.661Z,16.30
2017-08-10T16:54:34.187Z,16.30
2017-08-10T16:57:01.754Z,16.30
2017-08-10T16:59:29.378Z,16.20
2017-08-10T17:01:56.941Z,16.20
2017-08-10T17:04:24.482Z,16.20
2017-08-10T17:06:52.080Z,16.30
2017-08-10T17:09:20.401Z,16.30
2017-08-10T17:11:47.995Z,16.30
2017-08-10T17:14:15.541Z,16.20
2017-08-10T17:16:44.212Z,16.10
2017-08-10T17:19:12.657Z,16.20
2017-08-10T17:21:40.247Z,16.20
2017-08-10T17:24:07.895Z,16.20
2017-08-10T17:26:35.462Z,16.10
2017-08-10T17:29:03.005Z,16.10
2017-08-10T17:31:30.577Z,16.10
2017-08-10T17:33:58.135Z,16.10
2017-08-10T17:36:25.721Z,16.10
2017-08-10T17:38:53.274Z,16.00
2017-08-10T17:41:20.859Z,16.00
2017-08-10T17:43:49.170Z,15.90
2017-08-10T17:46:16.731Z,15.90
2017-08-10T17:48:44.307Z,15.80
2017-08-10T17:51:12.810Z,15.70
2017-08-10T17:53:40.381Z,15.90
2017-08-10T17:56:07.960Z,15.80
2017-08-10T17:58:35.582Z,15.70
2017-08-10T18:01:03.168Z,15.60
2017-08-10T18:03:31.483Z,15.60
2017-08-10T18:05:59.026Z,15.60
2017-08-10T18:08:26.621Z,15.60
2017-08-10T18:10:54.206Z,15.60
2017-08-10T18:13:23.014Z,15.60
2017-08-10T18:15:51.370Z,15.70
2017-08-10T18:18:18.921Z,15.70
2017-08-10T18:20:46.474Z,15.70
2017-08-10T18:23:14.055Z,15.60
2017-08-10T18:25:41.599Z,15.50
2017-08-10T18:28:09.191Z,15.50
2017-08-10T18:30:37.609Z,15.60
2017-08-10T18:33:05.473Z,15.50
2017-08-10T18:35:33.017Z,15.60
2017-08-10T18:38:00.564Z,15.60
2017-08-10T18:40:28.331Z,15.60
2017-08-10T18:42:55.890Z,15.60
2017-08-10T18:45:23.460Z,15.60
2017-08-10T18:47:51.007Z,15.50
2017-08-10T18:50:18.590Z,15.40
2017-08-10T18:52:46.138Z,15.40
2017-08-10T18:55:14.243Z,15.40
2017-08-10T18:57:41.827Z,15.30
2017-08-10T19:00:10.148Z,15.30
2017-08-10T19:02:37.699Z,15.30
2017-08-10T19:05:05.300Z,15.30
2017-08-10T19:07:32.875Z,15.30
2017-08-10T19:10:01.141Z,15.30
2017-08-10T19:12:29.206Z,15.30
2017-08-10T19:14:56.798Z,15.40
2017-08-10T19:17:25.117Z,15.40
2017-08-10T19:19:54.074Z,15.40
2017-08-10T19:22:21.658Z,15.40
2017-08-10T19:24:49.277Z,15.50
2017-08-10T19:27:17.590Z,15.40
2017-08-10T19:29:45.726Z,15.40
2017-08-10T19:32:14.066Z,15.30
2017-08-10T19:34:41.626Z,15.30
2017-08-10T19:37:09.203Z,15.30
2017-08-10T19:39:36.788Z,15.30
2017-08-10T19:42:05.379Z,15.40
2017-08-10T19:44:33.002Z,15.40
2017-08-10T19:47:00.589Z,15.30
2017-08-10T19:49:28.903Z,15.40
2017-08-10T19:51:57.509Z,15.40
2017-08-10T19:54:25.919Z,15.40
2017-08-10T19:56:53.523Z,15.40
2017-08-10T19:59:23.362Z,15.40
2017-08-10T20:01:50.935Z,15.40
2017-08-10T20:04:20.146Z,15.40
2017-08-10T20:06:49.772Z,15.40
2017-08-10T20:09:18.299Z,15.40
2017-08-10T20:11:46.791Z,15.40
2017-08-10T20:14:16.978Z,15.40
2017-08-10T20:16:44.545Z,15.40
2017-08-10T20:19:12.715Z,15.40
2017-08-10T20:21:41.759Z,15.30
2017-08-10T20:24:11.778Z,15.30
2017-08-10T20:26:40.763Z,15.30
2017-08-10T20:29:09.118Z,15.30
2017-08-10T20:31:36.688Z,15.20
2017-08-10T20:34:04.275Z,15.20
2017-08-10T20:36:33.415Z,15.20
2017-08-10T20:39:01.354Z,15.20
2017-08-10T20:41:28.897Z,15.20
2017-08-10T20:43:58.023Z,15.10
2017-08-10T20:46:25.607Z,15.10
2017-08-10T20:51:27.227Z,15.20
2017-08-10T20:53:54.799Z,15.20
2017-08-10T20:56:22.397Z,15.20
2017-08-10T20:58:52.710Z,15.10
2017-08-10T21:01:20.540Z,15.20
2017-08-10T21:03:48.123Z,15.20
2017-08-10T21:06:15.675Z,15.20
2017-08-10T21:08:43.616Z,15.20
2017-08-10T21:11:16.142Z,15.10
2017-08-10T21:13:46.197Z,15.10
2017-08-10T21:16:14.846Z,15.10
2017-08-10T21:18:42.717Z,15.10
2017-08-10T21:21:11.022Z,15.10
2017-08-10T21:23:42.237Z,15.20
2017-08-10T21:26:10.583Z,15.20
2017-08-10T21:28:38.179Z,15.20
2017-08-10T21:31:05.729Z,15.20
2017-08-10T21:33:33.302Z,15.30
2017-08-10T21:36:02.137Z,15.20
2017-08-10T21:38:29.687Z,15.20
2017-08-10T21:40:57.262Z,15.20
2017-08-10T21:43:26.055Z,15.10
2017-08-10T21:45:53.640Z,15.10
2017-08-10T21:48:21.206Z,15.10
2017-08-10T21:50:48.762Z,15.10
2017-08-10T21:53:16.935Z,15.00
2017-08-10T21:55:44.474Z,15.10
2017-08-10T21:58:12.062Z,15.00
2017-08-10T22:01:00.298Z,15.00
2017-08-10T22:03:28.099Z,15.00
2017-08-10T22:05:55.713Z,15.00
2017-08-10T22:11:09.871Z,15.00
2017-08-10T22:13:37.623Z,15.00
2017-08-10T22:16:13.547Z,15.00
2017-08-10T22:21:29.786Z,15.00
2017-08-10T22:23:58.396Z,15.00
2017-08-10T22:26:27.168Z,15.10
2017-08-10T22:28:55.110Z,15.00
2017-08-10T22:31:22.645Z,15.00
2017-08-10T22:33:51.401Z,15.00
2017-08-10T22:36:20.574Z,14.90
2017-08-10T22:38:48.113Z,15.00
2017-08-10T22:41:15.717Z,14.90
2017-08-10T22:43:43.929Z,14.90
2017-08-10T22:46:12.901Z,14.80
2017-08-10T22:48:41.185Z,14.80
2017-08-10T22:51:09.513Z,14.80
2017-08-10T22:53:38.467Z,14.80
2017-08-10T22:56:08.452Z,14.80
2017-08-10T22:58:36.989Z,14.80
2017-08-10T23:01:04.534Z,14.80
2017-08-10T23:03:32.078Z,14.80
2017-08-10T23:05:59.653Z,14.70
2017-08-10T23:08:27.694Z,14.70
2017-08-10T23:10:56.170Z,14.70
2017-08-10T23:13:23.703Z,14.80
2017-08-10T23:15:53.337Z,14.80
2017-08-10T23:18:21.726Z,14.90
2017-08-10T23:20:49.702Z,14.90
2017-08-10T23:23:17.278Z,14.90
2017-08-10T23:25:46.262Z,14.90
2017-08-10T23:28:13.809Z,14.90
2017-08-10T23:30:42.563Z,14.90
2017-08-10T23:33:10.937Z,14.90
2017-08-10T23:35:38.538Z,14.90
2017-08-10T23:38:06.134Z,15.00
2017-08-10T23:40:33.909Z,14.90
2017-08-10T23:43:02.893Z,14.90
2017-08-10T23:45:34.429Z,14.90
2017-08-10T23:48:02.027Z,14.90
2017-08-10T23:50:30.749Z,14.90
2017-08-10T23:52:58.335Z,14.90
2017-08-10T23:55:27.010Z,14.90
2017-08-10T23:57:54.634Z,14.90
